sensor_id;sensor_type;location;lat;lon;timestamp;pressure;altitude;pressure_sealevel;temperature;humidity
22775;BME280;11554;51.106;3.684;2024-03-02T00:00:00;99759.38;;;4.87;100.0
22775;BME280;11554;51.106;3.684;2024-03-02T00:05:00;99760.68000000001;;;4.86;100.0
22775;BME280;11554;51.106;3.684;2024-03-02T00:10:00;99757.45;;;4.84;100.0
22775;BME280;11554;51.106;3.684;2024-03-02T00:15:00;99781.68;;;4.85;100.0
22775;BME280;11554;51.106;3.684;2024-03-02T00:20:00;99788.67;;;4.85;100.0
22775;BME280;11554;51.106;3.684;2024-03-02T00:25:00;99775.23;;;4.86;100.0
22775;BME280;11554;51.106;3.684;2024-03-02T00:30:00;99777.28;;;4.79;100.0
22775;BME280;11554;51.106;3.684;2024-03-02T00:35:00;99787.61;;;4.71;100.0
22775;BME280;11554;51.106;3.684;2024-03-02T00:40:00;99782.75;;;4.62;100.0
22775;BME280;11554;51.106;3.684;2024-03-02T00:45:00;99784.2;;;4.64;100.0
22775;BME280;11554;51.106;3.684;2024-03-02T00:50:00;99795.12;;;4.74;100.0
22775;BME280;11554;51.106;3.684;2024-03-02T00:55:00;99800.62000000001;;;4.79;100.0
22775;BME280;11554;51.106;3.684;2024-03-02T01:00:00;99794.23000000001;;;4.84;100.0
22775;BME280;11554;51.106;3.684;2024-03-02T01:05:00;99792.03;;;4.77;100.0
22775;BME280;11554;51.106;3.684;2024-03-02T01:10:00;99798.20999999999;;;4.64;100.0
22775;BME280;11554;51.106;3.684;2024-03-02T01:15:00;99797.27;;;4.55;100.0
22775;BME280;11554;51.106;3.684;2024-03-02T01:20:00;99798.87999999999;;;4.42;100.0
22775;BME280;11554;51.106;3.684;2024-03-02T01:25:00;99801.39;;;4.34;100.0
22775;BME280;11554;51.106;3.684;2024-03-02T01:30:00;99800.2;;;4.28;100.0
22775;BME280;11554;51.106;3.684;2024-03-02T01:35:00;99812.63;;;4.20;100.0
22775;BME280;11554;51.106;3.684;2024-03-02T01:40:00;99809.79999999999;;;4.14;100.0
22775;BME280;11554;51.106;3.684;2024-03-02T01:45:00;99809.06;;;4.10;100.0
22775;BME280;11554;51.106;3.684;2024-03-02T01:50:00;99806.9;;;4.11;100.0
22775;BME280;11554;51.106;3.684;2024-03-02T01:55:00;99808.46;;;4.03;100.0
22775;BME280;11554;51.106;3.684;2024-03-02T02:00:00;99815.12;;;3.94;100.0
22775;BME280;11554;51.106;3.684;2024-03-02T02:05:00;99810.29999999999;;;4.01;100.0
22775;BME280;11554;51.106;3.684;2024-03-02T02:10:00;99804.96;;;3.97;100.0
22775;BME280;11554;51.106;3.684;2024-03-02T02:15:00;99807.76;;;3.92;100.0
22775;BME280;11554;51.106;3.684;2024-03-02T02:20:00;99806.73000000001;;;3.89;100.0
22775;BME280;11554;51.106;3.684;2024-03-02T02:25:00;99814.03;;;3.97;100.0
22775;BME280;11554;51.106;3.684;2024-03-02T02:30:00;99813.09;;;3.94;100.0
22775;BME280;11554;51.106;3.684;2024-03-02T02:35:00;99811.03;;;3.94;100.0
22775;BME280;11554;51.106;3.684;2024-03-02T02:40:00;99810.03;;;3.87;100.0
22775;BME280;11554;51.106;3.684;2024-03-02T02:45:00;99810.85;;;3.87;100.0
22775;BME280;11554;51.106;3.684;2024-03-02T02:50:00;99805.22;;;3.92;100.0
22775;BME280;11554;51.106;3.684;2024-03-02T02:55:01;99813.31999999999;;;3.91;100.0
22775;BME280;11554;51.106;3.684;2024-03-02T03:00:00;99809.52;;;3.85;100.0
22775;BME280;11554;51.106;3.684;2024-03-02T03:05:00;99801.98000000001;;;3.94;100.0
22775;BME280;11554;51.106;3.684;2024-03-02T03:10:00;99801.2;;;3.99;100.0
22775;BME280;11554;51.106;3.684;2024-03-02T03:15:00;99801.17;;;3.94;100.0
22775;BME280;11554;51.106;3.684;2024-03-02T03:20:00;99804.21;;;3.93;100.0
22775;BME280;11554;51.106;3.684;2024-03-02T03:25:00;99791.27;;;3.86;100.0
22775;BME280;11554;51.106;3.684;2024-03-02T03:30:00;99789.88;;;3.82;100.0
22775;BME280;11554;51.106;3.684;2024-03-02T03:35:00;99786.81;;;3.83;100.0
22775;BME280;11554;51.106;3.684;2024-03-02T03:40:00;99791.75;;;3.87;100.0
22775;BME280;11554;51.106;3.684;2024-03-02T03:45:00;99785.32;;;3.87;100.0
22775;BME280;11554;51.106;3.684;2024-03-02T03:50:00;99776.59;;;3.89;100.0
22775;BME280;11554;51.106;3.684;2024-03-02T03:55:00;99788.84000000001;;;3.85;100.0
22775;BME280;11554;51.106;3.684;2024-03-02T04:00:00;99787.65;;;3.86;100.0
22775;BME280;11554;51.106;3.684;2024-03-02T04:05:00;99788.5;;;3.78;100.0
22775;BME280;11554;51.106;3.684;2024-03-02T04:10:00;99791.04999999999;;;3.73;100.0
22775;BME280;11554;51.106;3.684;2024-03-02T04:15:00;99790.14;;;3.79;100.0
22775;BME280;11554;51.106;3.684;2024-03-02T04:20:00;99800.05;;;3.82;100.0
22775;BME280;11554;51.106;3.684;2024-03-02T04:25:00;99806.23000000001;;;3.73;100.0
22775;BME280;11554;51.106;3.684;2024-03-02T04:30:00;99819.67;;;3.76;100.0
22775;BME280;11554;51.106;3.684;2024-03-02T04:35:00;99817.17;;;3.82;100.0
22775;BME280;11554;51.106;3.684;2024-03-02T04:40:00;99828.59999999999;;;3.91;100.0
22775;BME280;11554;51.106;3.684;2024-03-02T04:45:00;99829.92;;;3.98;100.0
22775;BME280;11554;51.106;3.684;2024-03-02T04:50:00;99836.7;;;4.00;100.0
22775;BME280;11554;51.106;3.684;2024-03-02T04:55:00;99839.22;;;4.02;100.0
22775;BME280;11554;51.106;3.684;2024-03-02T05:00:00;99841.78;;;3.94;100.0
22775;BME280;11554;51.106;3.684;2024-03-02T05:05:00;99843.69;;;3.90;100.0
22775;BME280;11554;51.106;3.684;2024-03-02T05:10:00;99849.11;;;3.91;100.0
22775;BME280;11554;51.106;3.684;2024-03-02T05:15:00;99850.44;;;3.92;100.0
22775;BME280;11554;51.106;3.684;2024-03-02T05:20:00;99851.98000000001;;;3.88;100.0
22775;BME280;11554;51.106;3.684;2024-03-02T05:25:00;99859.23;;;3.79;100.0
22775;BME280;11554;51.106;3.684;2024-03-02T05:30:00;99847.6;;;3.73;100.0
22775;BME280;11554;51.106;3.684;2024-03-02T05:35:00;99862.31;;;3.68;100.0
22775;BME280;11554;51.106;3.684;2024-03-02T05:40:00;99864.54;;;3.64;100.0
22775;BME280;11554;51.106;3.684;2024-03-02T05:45:00;99856.34;;;3.64;100.0
22775;BME280;11554;51.106;3.684;2024-03-02T05:50:00;99857.23000000001;;;3.56;100.0
22775;BME280;11554;51.106;3.684;2024-03-02T05:55:00;99857.98;;;3.56;100.0
22775;BME280;11554;51.106;3.684;2024-03-02T06:00:00;99860.70999999999;;;3.40;100.0
22775;BME280;11554;51.106;3.684;2024-03-02T06:05:00;99862.48000000001;;;3.43;100.0
22775;BME280;11554;51.106;3.684;2024-03-02T06:10:00;99867.13;;;3.40;100.0
22775;BME280;11554;51.106;3.684;2024-03-02T06:15:00;99869.82;;;3.33;100.0
22775;BME280;11554;51.106;3.684;2024-03-02T06:20:00;99869.56;;;3.32;100.0
22775;BME280;11554;51.106;3.684;2024-03-02T06:25:00;99885.42;;;3.27;100.0
22775;BME280;11554;51.106;3.684;2024-03-02T06:30:00;99882.95000000001;;;3.30;100.0
22775;BME280;11554;51.106;3.684;2024-03-02T06:35:00;99884.81;;;3.40;100.0
22775;BME280;11554;51.106;3.684;2024-03-02T06:40:00;99877.65000000001;;;3.42;100.0
22775;BME280;11554;51.106;3.684;2024-03-02T06:45:00;99880.94;;;3.41;100.0
22775;BME280;11554;51.106;3.684;2024-03-02T06:50:00;99889.53;;;3.43;100.0
22775;BME280;11554;51.106;3.684;2024-03-02T06:55:00;99899.44;;;3.42;100.0
22775;BME280;11554;51.106;3.684;2024-03-02T07:00:00;99893.8;;;3.45;100.0
22775;BME280;11554;51.106;3.684;2024-03-02T07:05:00;99901.64;;;3.58;100.0
22775;BME280;11554;51.106;3.684;2024-03-02T07:10:00;99903.41;;;3.78;100.0
22775;BME280;11554;51.106;3.684;2024-03-02T07:15:00;99898.32;;;3.95;100.0
22775;BME280;11554;51.106;3.684;2024-03-02T07:20:00;99899.99;;;4.10;100.0
22775;BME280;11554;51.106;3.684;2024-03-02T07:25:00;99900.86;;;4.29;100.0
22775;BME280;11554;51.106;3.684;2024-03-02T07:30:01;99889.15;;;4.46;100.0
22775;BME280;11554;51.106;3.684;2024-03-02T07:35:00;99888.36;;;4.68;100.0
22775;BME280;11554;51.106;3.684;2024-03-02T07:40:00;99870.73000000001;;;4.86;100.0
22775;BME280;11554;51.106;3.684;2024-03-02T07:45:00;99867.8;;;5.08;100.0
22775;BME280;11554;51.106;3.684;2024-03-02T07:50:00;99856.26999999999;;;5.29;100.0
22775;BME280;11554;51.106;3.684;2024-03-02T07:55:00;99851.01;;;5.50;100.0
22775;BME280;11554;51.106;3.684;2024-03-02T08:00:00;99854.31999999999;;;5.59;100.0
22775;BME280;11554;51.106;3.684;2024-03-02T08:05:01;99849.03;;;5.69;100.0
22775;BME280;11554;51.106;3.684;2024-03-02T08:10:00;99848.78;;;5.76;100.0
22775;BME280;11554;51.106;3.684;2024-03-02T08:15:00;99847.19;;;5.93;100.0
22775;BME280;11554;51.106;3.684;2024-03-02T08:20:00;99848.73999999999;;;6.12;100.0
22775;BME280;11554;51.106;3.684;2024-03-02T08:25:00;99849.65999999999;;;6.28;100.0
22775;BME280;11554;51.106;3.684;2024-03-02T08:30:00;99853.49;;;6.44;100.0
22775;BME280;11554;51.106;3.684;2024-03-02T08:35:00;99853.2;;;6.61;100.0
22775;BME280;11554;51.106;3.684;2024-03-02T08:40:00;99857.37000000001;;;6.79;100.0
22775;BME280;11554;51.106;3.684;2024-03-02T08:45:00;99850.55;;;6.99;100.0
22775;BME280;11554;51.106;3.684;2024-03-02T08:50:00;99847.89;;;6.91;100.0
22775;BME280;11554;51.106;3.684;2024-03-02T08:55:00;99844.78;;;6.77;100.0
22775;BME280;11554;51.106;3.684;2024-03-02T09:00:00;99847.09;;;6.76;100.0
22775;BME280;11554;51.106;3.684;2024-03-02T09:05:00;99850.08;;;6.79;100.0
22775;BME280;11554;51.106;3.684;2024-03-02T09:10:00;99849.99;;;7.06;100.0
22775;BME280;11554;51.106;3.684;2024-03-02T09:15:00;99853.44;;;7.39;100.0
22775;BME280;11554;51.106;3.684;2024-03-02T09:20:00;99849.7;;;7.88;100.0
22775;BME280;11554;51.106;3.684;2024-03-02T09:25:00;99841.97;;;8.24;100.0
22775;BME280;11554;51.106;3.684;2024-03-02T09:30:00;99840.45;;;8.08;100.0
22775;BME280;11554;51.106;3.684;2024-03-02T09:35:00;99826.12000000001;;;8.09;100.0
22775;BME280;11554;51.106;3.684;2024-03-02T09:40:00;99828.04;;;8.79;100.0
22775;BME280;11554;51.106;3.684;2024-03-02T09:45:00;99814.14;;;8.98;100.0
22775;BME280;11554;51.106;3.684;2024-03-02T09:50:00;99815.8;;;9.01;100.0
22775;BME280;11554;51.106;3.684;2024-03-02T09:55:00;99811.13;;;9.09;100.0
22775;BME280;11554;51.106;3.684;2024-03-02T10:00:00;99804.96;;;9.37;100.0
22775;BME280;11554;51.106;3.684;2024-03-02T10:05:00;99809.88;;;9.42;100.0
22775;BME280;11554;51.106;3.684;2024-03-02T10:10:11;99800.53;;;9.42;100.0
22775;BME280;11554;51.106;3.684;2024-03-02T10:15:02;99806.28;;;9.69;100.0
22775;BME280;11554;51.106;3.684;2024-03-02T10:20:21;99804.75;;;9.65;100.0
22775;BME280;11554;51.106;3.684;2024-03-02T10:25:00;99795.06999999999;;;10.05;100.0
22775;BME280;11554;51.106;3.684;2024-03-02T10:30:01;99787.93;;;9.87;100.0
22775;BME280;11554;51.106;3.684;2024-03-02T10:35:00;99793.45;;;9.70;100.0
22775;BME280;11554;51.106;3.684;2024-03-02T10:40:04;99784.81;;;9.57;100.0
22775;BME280;11554;51.106;3.684;2024-03-02T10:45:00;99775.95999999999;;;9.53;100.0
22775;BME280;11554;51.106;3.684;2024-03-02T10:50:00;99779.08;;;9.65;100.0
22775;BME280;11554;51.106;3.684;2024-03-02T10:55:00;99774.56;;;9.62;100.0
22775;BME280;11554;51.106;3.684;2024-03-02T11:00:02;99776.98000000001;;;9.76;100.0
22775;BME280;11554;51.106;3.684;2024-03-02T11:05:00;99774.98000000001;;;9.87;100.0
22775;BME280;11554;51.106;3.684;2024-03-02T11:10:01;99769.22;;;10.13;100.0
22775;BME280;11554;51.106;3.684;2024-03-02T11:15:00;99762.75;;;10.44;100.0
22775;BME280;11554;51.106;3.684;2024-03-02T11:20:00;99757.92;;;10.36;100.0
22775;BME280;11554;51.106;3.684;2024-03-02T11:25:00;99755.46;;;10.37;100.0
22775;BME280;11554;51.106;3.684;2024-03-02T11:30:00;99754.26999999999;;;10.44;100.0
22775;BME280;11554;51.106;3.684;2024-03-02T11:35:00;99757.11;;;10.58;100.0
22775;BME280;11554;51.106;3.684;2024-03-02T11:40:00;99761.15;;;10.45;100.0
22775;BME280;11554;51.106;3.684;2024-03-02T11:45:00;99751.23;;;10.72;100.0
22775;BME280;11554;51.106;3.684;2024-03-02T11:50:00;99753.25;;;10.90;100.0
22775;BME280;11554;51.106;3.684;2024-03-02T11:55:00;99742.95;;;11.21;100.0
22775;BME280;11554;51.106;3.684;2024-03-02T12:00:00;99745.61;;;11.11;100.0
22775;BME280;11554;51.106;3.684;2024-03-02T12:05:02;99736.03;;;10.89;100.0
22775;BME280;11554;51.106;3.684;2024-03-02T12:10:00;99736.49;;;10.96;100.0
22775;BME280;11554;51.106;3.684;2024-03-02T12:15:00;99727.67;;;10.94;100.0
22775;BME280;11554;51.106;3.684;2024-03-02T12:20:00;99725.3;;;10.68;100.0
22775;BME280;11554;51.106;3.684;2024-03-02T12:25:00;99721.69;;;10.70;100.0
22775;BME280;11554;51.106;3.684;2024-03-02T12:30:00;99708.01;;;10.49;100.0
22775;BME280;11554;51.106;3.684;2024-03-02T12:35:00;99708.0;;;10.24;100.0
22775;BME280;11554;51.106;3.684;2024-03-02T12:40:00;99710.20999999999;;;10.29;100.0
22775;BME280;11554;51.106;3.684;2024-03-02T12:45:00;99713.47;;;10.06;100.0
22775;BME280;11554;51.106;3.684;2024-03-02T12:50:00;99705.39;;;9.95;100.0
22775;BME280;11554;51.106;3.684;2024-03-02T12:55:00;99700.0;;;9.77;100.0
22775;BME280;11554;51.106;3.684;2024-03-02T13:00:00;99703.09;;;9.61;100.0
22775;BME280;11554;51.106;3.684;2024-03-02T13:05:00;99704.83;;;9.59;100.0
22775;BME280;11554;51.106;3.684;2024-03-02T13:10:00;99705.2;;;9.65;100.0
22775;BME280;11554;51.106;3.684;2024-03-02T13:15:00;99701.26000000001;;;9.58;100.0
22775;BME280;11554;51.106;3.684;2024-03-02T13:20:00;99701.72;;;9.50;100.0
22775;BME280;11554;51.106;3.684;2024-03-02T13:25:00;99705.19;;;9.41;100.0
22775;BME280;11554;51.106;3.684;2024-03-02T13:30:01;99714.4;;;9.30;100.0
22775;BME280;11554;51.106;3.684;2024-03-02T13:35:00;99717.40999999999;;;9.21;100.0
22775;BME280;11554;51.106;3.684;2024-03-02T13:40:00;99720.28;;;9.15;100.0
22775;BME280;11554;51.106;3.684;2024-03-02T13:45:00;99718.69;;;9.12;100.0
22775;BME280;11554;51.106;3.684;2024-03-02T13:50:00;99719.64;;;9.24;100.0
22775;BME280;11554;51.106;3.684;2024-03-02T13:55:00;99713.44;;;9.50;100.0
22775;BME280;11554;51.106;3.684;2024-03-02T14:00:00;99705.45;;;9.65;100.0
22775;BME280;11554;51.106;3.684;2024-03-02T14:05:00;99698.20999999999;;;9.58;100.0
22775;BME280;11554;51.106;3.684;2024-03-02T14:10:00;99711.1;;;9.37;100.0
22775;BME280;11554;51.106;3.684;2024-03-02T14:15:00;99704.96;;;9.42;100.0
22775;BME280;11554;51.106;3.684;2024-03-02T14:20:00;99701.0;;;9.56;100.0
22775;BME280;11554;51.106;3.684;2024-03-02T14:25:00;99693.55;;;9.49;100.0
22775;BME280;11554;51.106;3.684;2024-03-02T14:30:00;99700.27;;;9.36;100.0
22775;BME280;11554;51.106;3.684;2024-03-02T14:35:00;99712.94;;;9.26;100.0
22775;BME280;11554;51.106;3.684;2024-03-02T14:40:00;99710.89;;;9.20;100.0
22775;BME280;11554;51.106;3.684;2024-03-02T14:45:00;99698.41;;;9.29;100.0
22775;BME280;11554;51.106;3.684;2024-03-02T14:50:00;99696.52;;;9.40;100.0
22775;BME280;11554;51.106;3.684;2024-03-02T14:55:00;99693.34;;;9.37;100.0
22775;BME280;11554;51.106;3.684;2024-03-02T15:00:00;99674.58;;;9.44;100.0
22775;BME280;11554;51.106;3.684;2024-03-02T15:05:00;99670.67;;;9.42;100.0
22775;BME280;11554;51.106;3.684;2024-03-02T15:10:00;99663.31;;;9.45;100.0
22775;BME280;11554;51.106;3.684;2024-03-02T15:15:00;99667.46;;;9.40;100.0
22775;BME280;11554;51.106;3.684;2024-03-02T15:20:00;99654.85;;;9.43;100.0
22775;BME280;11554;51.106;3.684;2024-03-02T15:25:00;99649.75;;;9.32;100.0
22775;BME280;11554;51.106;3.684;2024-03-02T15:30:00;99642.36;;;9.27;100.0
22775;BME280;11554;51.106;3.684;2024-03-02T15:35:00;99641.56;;;9.38;100.0
22775;BME280;11554;51.106;3.684;2024-03-02T15:40:00;99629.57;;;9.43;100.0
22775;BME280;11554;51.106;3.684;2024-03-02T15:45:00;99628.14;;;9.51;100.0
22775;BME280;11554;51.106;3.684;2024-03-02T15:50:00;99613.58;;;9.48;100.0
22775;BME280;11554;51.106;3.684;2024-03-02T15:55:00;99608.76;;;9.47;100.0
22775;BME280;11554;51.106;3.684;2024-03-02T16:00:00;99610.74;;;9.44;100.0
22775;BME280;11554;51.106;3.684;2024-03-02T16:05:00;99609.09;;;9.40;100.0
22775;BME280;11554;51.106;3.684;2024-03-02T16:10:00;99604.16;;;9.43;100.0
22775;BME280;11554;51.106;3.684;2024-03-02T16:15:00;99604.21;;;9.47;100.0
22775;BME280;11554;51.106;3.684;2024-03-02T16:20:00;99600.01;;;9.47;100.0
22775;BME280;11554;51.106;3.684;2024-03-02T16:25:00;99593.42;;;9.46;100.0
22775;BME280;11554;51.106;3.684;2024-03-02T16:30:00;99594.98;;;9.48;100.0
22775;BME280;11554;51.106;3.684;2024-03-02T16:35:00;99591.36;;;9.40;100.0
22775;BME280;11554;51.106;3.684;2024-03-02T16:40:00;99595.25;;;9.32;100.0
22775;BME280;11554;51.106;3.684;2024-03-02T16:45:00;99601.64;;;9.31;100.0
22775;BME280;11554;51.106;3.684;2024-03-02T16:50:00;99600.01999999999;;;9.26;100.0
22775;BME280;11554;51.106;3.684;2024-03-02T16:55:00;99599.64;;;9.21;100.0
22775;BME280;11554;51.106;3.684;2024-03-02T17:00:00;99604.38;;;9.19;100.0
22775;BME280;11554;51.106;3.684;2024-03-02T17:05:00;99607.64;;;9.21;100.0
22775;BME280;11554;51.106;3.684;2024-03-02T17:10:00;99612.44;;;9.20;100.0
22775;BME280;11554;51.106;3.684;2024-03-02T17:15:00;99619.28;;;9.16;100.0
22775;BME280;11554;51.106;3.684;2024-03-02T17:20:00;99624.40000000001;;;9.10;100.0
22775;BME280;11554;51.106;3.684;2024-03-02T17:25:00;99630.86;;;9.06;100.0
22775;BME280;11554;51.106;3.684;2024-03-02T17:30:00;99639.73;;;8.99;100.0
22775;BME280;11554;51.106;3.684;2024-03-02T17:35:00;99656.97;;;8.95;100.0
22775;BME280;11554;51.106;3.684;2024-03-02T17:40:00;99693.03;;;8.77;100.0
22775;BME280;11554;51.106;3.684;2024-03-02T17:45:00;99702.20000000001;;;8.41;100.0
22775;BME280;11554;51.106;3.684;2024-03-02T17:50:00;99712.44;;;8.11;100.0
22775;BME280;11554;51.106;3.684;2024-03-02T17:55:00;99706.84;;;7.93;100.0
22775;BME280;11554;51.106;3.684;2024-03-02T18:00:00;99715.28;;;7.81;100.0
22775;BME280;11554;51.106;3.684;2024-03-02T18:05:00;99715.16;;;7.74;100.0
22775;BME280;11554;51.106;3.684;2024-03-02T18:10:00;99723.95;;;7.63;100.0
22775;BME280;11554;51.106;3.684;2024-03-02T18:15:00;99718.08;;;7.57;100.0
22775;BME280;11554;51.106;3.684;2024-03-02T18:20:00;99714.59;;;7.50;100.0
22775;BME280;11554;51.106;3.684;2024-03-02T18:25:00;99708.06;;;7.46;100.0
22775;BME280;11554;51.106;3.684;2024-03-02T18:30:00;99710.44;;;7.40;100.0
22775;BME280;11554;51.106;3.684;2024-03-02T18:35:00;99720.08;;;7.34;100.0
22775;BME280;11554;51.106;3.684;2024-03-02T18:40:00;99720.03;;;7.29;100.0
22775;BME280;11554;51.106;3.684;2024-03-02T18:45:00;99710.83;;;7.24;100.0
22775;BME280;11554;51.106;3.684;2024-03-02T18:50:00;99726.25;;;7.20;100.0
22775;BME280;11554;51.106;3.684;2024-03-02T18:55:00;99724.95999999999;;;7.17;100.0
22775;BME280;11554;51.106;3.684;2024-03-02T19:00:00;99726.59;;;7.14;100.0
22775;BME280;11554;51.106;3.684;2024-03-02T19:05:00;99719.92;;;7.07;100.0
22775;BME280;11554;51.106;3.684;2024-03-02T19:10:00;99734.70999999999;;;7.06;100.0
22775;BME280;11554;51.106;3.684;2024-03-02T19:15:00;99737.77;;;7.03;100.0
22775;BME280;11554;51.106;3.684;2024-03-02T19:20:00;99728.06;;;7.01;100.0
22775;BME280;11554;51.106;3.684;2024-03-02T19:25:00;99724.91;;;6.99;100.0
22775;BME280;11554;51.106;3.684;2024-03-02T19:30:00;99734.09;;;6.97;100.0
22775;BME280;11554;51.106;3.684;2024-03-02T19:35:00;99729.17;;;6.94;100.0
22775;BME280;11554;51.106;3.684;2024-03-02T19:40:00;99760.91;;;6.93;100.0
22775;BME280;11554;51.106;3.684;2024-03-02T19:45:00;99764.58;;;6.92;100.0
22775;BME280;11554;51.106;3.684;2024-03-02T19:50:00;99747.83;;;6.92;100.0
22775;BME280;11554;51.106;3.684;2024-03-02T19:55:00;99743.3;;;6.92;100.0
22775;BME280;11554;51.106;3.684;2024-03-02T20:00:00;99743.38;;;6.91;100.0
22775;BME280;11554;51.106;3.684;2024-03-02T20:05:00;99742.76999999999;;;6.90;100.0
22775;BME280;11554;51.106;3.684;2024-03-02T20:10:00;99739.03;;;6.87;100.0
22775;BME280;11554;51.106;3.684;2024-03-02T20:15:00;99730.8;;;6.85;100.0
22775;BME280;11554;51.106;3.684;2024-03-02T20:20:00;99731.62;;;6.83;100.0
22775;BME280;11554;51.106;3.684;2024-03-02T20:25:00;99743.69;;;6.82;100.0
22775;BME280;11554;51.106;3.684;2024-03-02T20:30:00;99756.89;;;6.80;100.0
22775;BME280;11554;51.106;3.684;2024-03-02T20:35:00;99756.61;;;6.72;100.0
22775;BME280;11554;51.106;3.684;2024-03-02T20:40:00;99756.97;;;6.69;100.0
22775;BME280;11554;51.106;3.684;2024-03-02T20:45:00;99744.16;;;6.66;100.0
22775;BME280;11554;51.106;3.684;2024-03-02T20:50:00;99767.39;;;6.64;100.0
22775;BME280;11554;51.106;3.684;2024-03-02T20:55:00;99743.38;;;6.61;100.0
22775;BME280;11554;51.106;3.684;2024-03-02T21:00:00;99744.92;;;6.55;100.0
22775;BME280;11554;51.106;3.684;2024-03-02T21:05:00;99750.43;;;6.53;100.0
22775;BME280;11554;51.106;3.684;2024-03-02T21:10:00;99748.65999999999;;;6.49;100.0
22775;BME280;11554;51.106;3.684;2024-03-02T21:15:00;99746.51;;;6.44;100.0
22775;BME280;11554;51.106;3.684;2024-03-02T21:20:00;99785.63;;;6.41;100.0
22775;BME280;11554;51.106;3.684;2024-03-02T21:25:00;99763.22;;;6.36;100.0
22775;BME280;11554;51.106;3.684;2024-03-02T21:30:00;99761.35;;;6.33;100.0
22775;BME280;11554;51.106;3.684;2024-03-02T21:35:00;99770.11;;;6.31;100.0
22775;BME280;11554;51.106;3.684;2024-03-02T21:40:00;99754.01000000001;;;6.30;100.0
22775;BME280;11554;51.106;3.684;2024-03-02T21:45:00;99769.97;;;6.30;100.0
22775;BME280;11554;51.106;3.684;2024-03-02T21:50:00;99752.11;;;6.29;100.0
22775;BME280;11554;51.106;3.684;2024-03-02T21:55:00;99761.61;;;6.29;100.0
22775;BME280;11554;51.106;3.684;2024-03-02T22:00:00;99745.4;;;6.29;100.0
22775;BME280;11554;51.106;3.684;2024-03-02T22:05:00;99774.51999999999;;;6.25;100.0
22775;BME280;11554;51.106;3.684;2024-03-02T22:10:00;99755.89;;;6.24;100.0
22775;BME280;11554;51.106;3.684;2024-03-02T22:15:00;99766.04;;;6.21;100.0
22775;BME280;11554;51.106;3.684;2024-03-02T22:20:00;99766.69;;;6.18;100.0
22775;BME280;11554;51.106;3.684;2024-03-02T22:25:00;99773.69;;;6.19;100.0
22775;BME280;11554;51.106;3.684;2024-03-02T22:30:00;99781.44;;;6.19;100.0
22775;BME280;11554;51.106;3.684;2024-03-02T22:35:00;99796.45000000001;;;6.19;100.0
22775;BME280;11554;51.106;3.684;2024-03-02T22:40:00;99794.73000000001;;;6.18;100.0
22775;BME280;11554;51.106;3.684;2024-03-02T22:45:00;99791.99;;;6.17;100.0
22775;BME280;11554;51.106;3.684;2024-03-02T22:50:00;99798.26000000001;;;6.16;100.0
22775;BME280;11554;51.106;3.684;2024-03-02T22:55:00;99809.25;;;6.16;100.0
22775;BME280;11554;51.106;3.684;2024-03-02T23:00:00;99808.7;;;6.12;100.0
22775;BME280;11554;51.106;3.684;2024-03-02T23:05:00;99805.89;;;6.07;100.0
22775;BME280;11554;51.106;3.684;2024-03-02T23:10:00;99799.97;;;6.06;100.0
22775;BME280;11554;51.106;3.684;2024-03-02T23:15:00;99799.77;;;6.05;100.0
22775;BME280;11554;51.106;3.684;2024-03-02T23:20:00;99816.28;;;6.07;100.0
22775;BME280;11554;51.106;3.684;2024-03-02T23:25:00;99817.6;;;6.04;100.0
22775;BME280;11554;51.106;3.684;2024-03-02T23:30:01;99807.34;;;6.02;100.0
22775;BME280;11554;51.106;3.684;2024-03-02T23:35:00;99804.21;;;5.98;100.0
22775;BME280;11554;51.106;3.684;2024-03-02T23:40:00;99805.84999999999;;;5.95;100.0
22775;BME280;11554;51.106;3.684;2024-03-02T23:45:00;99817.66;;;5.94;100.0
22775;BME280;11554;51.106;3.684;2024-03-02T23:50:00;99824.75;;;5.91;100.0
22775;BME280;11554;51.106;3.684;2024-03-02T23:55:00;99816.09;;;5.88;100.0
